createdAt,value
2022-10-20T00:01:07.246Z,4.65
2022-10-20T00:03:34.424Z,4.25
2022-10-20T00:06:10.405Z,4.38
2022-10-20T00:08:38.186Z,4.18
2022-10-20T00:11:05.915Z,4.15
2022-10-20T00:13:33.302Z,4.65
2022-10-20T00:16:01.156Z,4.65
2022-10-20T00:18:28.803Z,3.78
2022-10-20T00:20:56.267Z,4.45
2022-10-20T00:23:23.813Z,4.13
2022-10-20T00:26:01.812Z,4.53
2022-10-20T00:28:29.061Z,4.30
2022-10-20T00:30:56.762Z,4.50
2022-10-20T00:33:24.544Z,4.60
2022-10-20T00:35:51.689Z,4.40
2022-10-20T00:40:51.260Z,4.38
2022-10-20T00:43:18.742Z,4.40
2022-10-20T00:45:51.752Z,4.13
2022-10-20T00:48:25.761Z,4.32
2022-10-20T00:50:55.035Z,3.67
2022-10-20T00:53:23.201Z,3.75
2022-10-20T00:55:51.788Z,6.93
2022-10-20T00:58:19.585Z,4.57
2022-10-20T01:00:48.765Z,4.32
2022-10-20T01:03:19.879Z,4.05
2022-10-20T01:05:47.039Z,4.40
2022-10-20T01:08:14.190Z,4.00
2022-10-20T01:10:51.834Z,4.40
2022-10-20T01:13:33.286Z,6.00
2022-10-20T01:16:07.576Z,6.05
2022-10-20T01:18:47.442Z,4.75
2022-10-20T01:21:58.572Z,4.68
2022-10-20T01:24:34.538Z,4.97
2022-10-20T01:27:23.455Z,4.85
2022-10-20T01:30:16.118Z,4.63
2022-10-20T01:33:22.329Z,4.57
2022-10-20T01:36:05.975Z,4.50
2022-10-20T01:38:55.146Z,4.03
2022-10-20T01:41:34.069Z,4.25
2022-10-20T01:44:02.890Z,4.07
2022-10-20T01:46:30.329Z,4.55
2022-10-20T01:48:58.816Z,4.28
2022-10-20T01:51:25.985Z,4.53
2022-10-20T01:53:53.140Z,4.35
2022-10-20T01:56:37.062Z,4.10
2022-10-20T01:59:20.116Z,5.15
2022-10-20T02:02:22.605Z,4.20
2022-10-20T02:05:11.363Z,3.83
2022-10-20T02:07:39.240Z,4.97
2022-10-20T02:10:27.984Z,3.75
2022-10-20T02:12:58.936Z,4.25
2022-10-20T02:15:27.798Z,3.97
2022-10-20T02:18:02.464Z,4.20
2022-10-20T02:20:30.597Z,4.20
2022-10-20T02:22:59.040Z,4.47
2022-10-20T02:25:27.455Z,4.15
2022-10-20T02:27:55.264Z,4.75
2022-10-20T02:30:22.506Z,5.82
2022-10-20T02:32:52.732Z,4.78
2022-10-20T02:35:22.563Z,4.63
2022-10-20T02:37:50.386Z,4.50
2022-10-20T02:40:17.640Z,4.47
2022-10-20T02:42:44.811Z,4.25
2022-10-20T02:45:15.571Z,4.97
2022-10-20T02:47:42.858Z,4.63
2022-10-20T02:50:10.255Z,4.63
2022-10-20T02:52:38.038Z,4.50
2022-10-20T02:55:06.006Z,4.32
2022-10-20T02:57:33.839Z,4.43
2022-10-20T03:00:01.289Z,4.90
2022-10-20T03:02:28.443Z,4.30
2022-10-20T03:04:55.599Z,4.57
2022-10-20T03:07:22.858Z,4.15
2022-10-20T03:09:50.114Z,4.20
2022-10-20T03:12:17.472Z,4.88
2022-10-20T03:14:45.386Z,4.78
2022-10-20T03:17:12.632Z,4.63
2022-10-20T03:19:41.290Z,4.50
2022-10-20T03:22:08.533Z,4.22
2022-10-20T03:24:35.694Z,4.53
2022-10-20T03:27:02.875Z,4.68
2022-10-20T03:29:30.020Z,4.57
2022-10-20T03:31:57.203Z,4.55
2022-10-20T03:34:24.443Z,5.05
2022-10-20T03:36:51.698Z,5.03
2022-10-20T03:39:18.910Z,4.75
2022-10-20T03:41:46.114Z,4.72
2022-10-20T03:44:13.305Z,4.93
2022-10-20T03:46:40.472Z,4.28
2022-10-20T03:49:07.674Z,4.25
2022-10-20T03:51:34.904Z,4.63
2022-10-20T03:54:02.044Z,4.68
2022-10-20T03:56:29.278Z,4.55
2022-10-20T03:58:56.463Z,4.75
2022-10-20T04:01:29.926Z,5.22
2022-10-20T04:03:57.212Z,5.30
2022-10-20T04:06:24.511Z,4.68
2022-10-20T04:08:51.729Z,5.20
2022-10-20T04:11:18.994Z,5.20
2022-10-20T04:13:46.381Z,5.18
2022-10-20T04:16:13.687Z,5.30
2022-10-20T04:18:40.850Z,4.90
2022-10-20T04:21:08.021Z,4.97
2022-10-20T04:23:35.179Z,4.70
2022-10-20T04:26:09.159Z,4.40
2022-10-20T04:28:36.350Z,5.35
2022-10-20T04:31:03.528Z,5.03
2022-10-20T04:33:30.753Z,4.90
2022-10-20T04:36:03.423Z,5.13
2022-10-20T04:38:31.248Z,4.60
2022-10-20T04:41:03.367Z,5.38
2022-10-20T04:43:32.389Z,5.50
2022-10-20T04:46:07.222Z,5.38
2022-10-20T04:48:36.912Z,5.75
2022-10-20T04:51:06.197Z,5.88
2022-10-20T04:53:33.448Z,5.28
2022-10-20T04:56:00.661Z,5.57
2022-10-20T04:58:27.971Z,5.47
2022-10-20T05:00:59.835Z,5.68
2022-10-20T05:03:27.009Z,5.38
2022-10-20T05:05:54.176Z,4.90
2022-10-20T05:08:21.368Z,5.80
2022-10-20T05:10:48.593Z,6.20
2022-10-20T05:13:15.735Z,6.30
2022-10-20T05:15:42.924Z,6.40
2022-10-20T05:18:10.150Z,5.80
2022-10-20T05:20:41.224Z,6.68
2022-10-20T05:23:13.159Z,6.35
2022-10-20T05:25:40.395Z,6.28
2022-10-20T05:28:07.641Z,6.47
2022-10-20T05:30:35.626Z,6.75
2022-10-20T05:33:02.896Z,6.68
2022-10-20T05:35:30.548Z,6.68
2022-10-20T05:37:57.836Z,6.95
2022-10-20T05:40:25.035Z,6.93
2022-10-20T05:42:52.248Z,6.57
2022-10-20T05:45:19.479Z,7.50
2022-10-20T05:47:46.630Z,7.45
2022-10-20T05:50:13.796Z,7.38
2022-10-20T05:52:40.992Z,7.03
2022-10-20T05:55:09.339Z,7.75
2022-10-20T05:57:36.516Z,7.78
2022-10-20T06:00:04.546Z,7.07
2022-10-20T06:02:31.733Z,8.02
2022-10-20T06:04:59.035Z,6.90
2022-10-20T06:07:26.328Z,7.43
2022-10-20T06:09:54.719Z,8.55
2022-10-20T06:12:21.872Z,9.38
2022-10-20T06:14:49.048Z,8.57
2022-10-20T06:17:16.224Z,8.32
2022-10-20T06:19:43.441Z,9.23
2022-10-20T06:22:10.583Z,8.43
2022-10-20T06:24:37.736Z,9.70
2022-10-20T06:27:04.893Z,9.25
2022-10-20T06:29:32.068Z,9.73
2022-10-20T06:31:59.262Z,9.30
2022-10-20T06:34:26.963Z,9.68
2022-10-20T06:36:54.121Z,10.13
2022-10-20T06:39:23.282Z,10.65
2022-10-20T06:41:52.776Z,10.98
2022-10-20T06:44:21.726Z,9.70
2022-10-20T06:46:49.301Z,10.50
2022-10-20T06:49:16.466Z,10.70
2022-10-20T06:51:43.737Z,10.32
2022-10-20T06:54:10.931Z,10.57
2022-10-20T06:56:39.941Z,9.70
2022-10-20T06:59:07.419Z,10.57
2022-10-20T07:01:36.967Z,10.15
2022-10-20T07:04:07.464Z,9.98
2022-10-20T07:06:42.448Z,9.63
2022-10-20T07:09:13.859Z,9.52
2022-10-20T07:11:41.720Z,9.60
2022-10-20T07:14:09.814Z,9.52
2022-10-20T07:16:36.968Z,8.80
2022-10-20T07:19:05.314Z,9.00
2022-10-20T07:21:36.033Z,8.07
2022-10-20T07:24:06.298Z,8.55
2022-10-20T07:26:35.726Z,8.95
2022-10-20T07:31:36.404Z,7.85
2022-10-20T07:34:23.982Z,8.25
2022-10-20T07:36:52.207Z,8.27
2022-10-20T07:39:19.490Z,7.60
2022-10-20T07:41:48.039Z,8.23
2022-10-20T07:44:16.411Z,7.18
2022-10-20T07:46:43.740Z,7.28
2022-10-20T07:51:58.190Z,6.97
2022-10-20T07:54:25.387Z,6.70
2022-10-20T07:56:52.575Z,6.13
2022-10-20T07:59:19.808Z,6.57
2022-10-20T08:01:47.518Z,6.97
2022-10-20T08:04:14.836Z,6.65
2022-10-20T08:06:42.030Z,6.00
2022-10-20T08:09:09.281Z,6.57
2022-10-20T08:11:36.774Z,6.60
2022-10-20T08:14:04.160Z,6.05
2022-10-20T08:16:31.413Z,6.05
2022-10-20T08:21:39.648Z,5.60
2022-10-20T08:24:06.893Z,5.55
2022-10-20T08:26:34.031Z,5.68
2022-10-20T08:29:02.620Z,5.20
2022-10-20T08:31:29.822Z,6.35
2022-10-20T08:33:57.281Z,4.85
2022-10-20T08:36:24.693Z,4.72
2022-10-20T08:38:52.259Z,4.53
2022-10-20T08:41:27.091Z,5.20
2022-10-20T08:44:01.403Z,4.78
2022-10-20T08:46:39.965Z,4.53
2022-10-20T08:49:15.722Z,4.82
2022-10-20T08:51:43.069Z,4.45
2022-10-20T08:54:14.294Z,4.82
2022-10-20T08:56:41.680Z,4.72
2022-10-20T08:59:28.544Z,4.78
2022-10-20T09:01:57.015Z,4.57
2022-10-20T09:04:35.724Z,4.47
2022-10-20T09:07:08.936Z,4.22
2022-10-20T09:09:36.527Z,4.53
2022-10-20T09:12:06.392Z,5.05
2022-10-20T09:14:38.045Z,3.90
2022-10-20T09:17:09.181Z,4.20
2022-10-20T09:19:38.536Z,3.67
2022-10-20T09:22:06.889Z,4.15
2022-10-20T09:24:36.148Z,3.20
2022-10-20T09:29:49.028Z,3.35
2022-10-20T09:32:46.032Z,3.20
2022-10-20T09:35:20.606Z,4.20
2022-10-20T09:38:00.169Z,3.05
2022-10-20T09:40:27.800Z,3.00
2022-10-20T09:43:17.740Z,3.58
2022-10-20T09:45:59.604Z,3.50
2022-10-20T09:48:34.438Z,3.10
2022-10-20T09:51:01.888Z,3.40
2022-10-20T09:53:39.945Z,3.22
2022-10-20T09:56:07.463Z,3.45
2022-10-20T09:58:37.890Z,3.05
2022-10-20T10:01:07.438Z,3.22
2022-10-20T10:03:45.879Z,3.08
2022-10-20T10:06:28.156Z,2.87
2022-10-20T10:08:56.931Z,3.67
2022-10-20T10:11:34.343Z,3.72
2022-10-20T10:14:01.915Z,3.22
2022-10-20T10:16:29.294Z,3.45
2022-10-20T10:19:02.587Z,3.42
2022-10-20T10:21:41.939Z,3.95
2022-10-20T10:26:52.063Z,3.40
2022-10-20T10:29:25.400Z,3.45
2022-10-20T10:32:15.009Z,3.10
2022-10-20T10:34:56.807Z,3.58
2022-10-20T10:37:23.968Z,3.28
2022-10-20T10:39:51.177Z,4.03
2022-10-20T10:42:39.436Z,3.28
2022-10-20T10:45:23.116Z,3.80
2022-10-20T10:48:27.935Z,3.28
2022-10-20T10:50:59.200Z,2.97
2022-10-20T10:54:01.566Z,2.95
2022-10-20T10:56:49.017Z,3.13
2022-10-20T10:59:24.790Z,2.60
2022-10-20T11:02:26.539Z,3.30
2022-10-20T11:05:17.367Z,3.20
2022-10-20T11:08:01.174Z,2.70
2022-10-20T11:10:28.290Z,2.70
2022-10-20T11:13:24.481Z,2.45
2022-10-20T11:16:23.489Z,2.65
2022-10-20T11:19:00.962Z,2.63
2022-10-20T11:21:32.076Z,2.70
2022-10-20T11:24:30.196Z,3.38
2022-10-20T11:27:25.771Z,3.10
2022-10-20T11:30:05.444Z,3.22
2022-10-20T11:32:50.278Z,3.75
2022-10-20T11:35:54.147Z,2.85
2022-10-20T11:38:34.838Z,2.40
2022-10-20T11:41:19.070Z,2.33
2022-10-20T11:43:57.371Z,2.42
2022-10-20T11:46:51.798Z,2.33
2022-10-20T11:49:19.557Z,2.15
2022-10-20T11:51:55.297Z,2.55
2022-10-20T11:54:31.532Z,1.88
2022-10-20T11:57:14.440Z,2.00
2022-10-20T12:00:22.796Z,2.50
2022-10-20T12:02:52.691Z,2.47
2022-10-20T12:06:07.586Z,2.22
2022-10-20T12:09:00.162Z,2.13
2022-10-20T12:11:50.402Z,2.30
2022-10-20T12:14:19.484Z,2.30
2022-10-20T12:16:55.589Z,1.95
2022-10-20T12:19:25.674Z,2.00
2022-10-20T12:22:02.351Z,2.22
2022-10-20T12:24:41.392Z,2.22
2022-10-20T12:27:17.798Z,1.80
2022-10-20T12:29:44.861Z,1.85
2022-10-20T12:32:38.261Z,2.28
2022-10-20T12:35:24.036Z,2.53
2022-10-20T12:38:03.966Z,2.05
2022-10-20T12:40:43.439Z,2.40
2022-10-20T12:43:29.917Z,1.98
2022-10-20T12:45:59.575Z,2.17
2022-10-20T12:48:27.021Z,2.33
2022-10-20T12:50:54.609Z,2.55
2022-10-20T12:53:28.470Z,2.60
2022-10-20T12:56:00.518Z,2.17
2022-10-20T12:58:30.880Z,2.83
2022-10-20T13:00:58.622Z,2.08
2022-10-20T13:03:47.253Z,2.30
2022-10-20T13:06:26.905Z,2.58
2022-10-20T13:09:07.024Z,2.28
2022-10-20T13:11:41.522Z,2.88
2022-10-20T13:14:36.134Z,3.10
2022-10-20T13:17:23.298Z,2.53
2022-10-20T13:20:01.769Z,2.38
2022-10-20T13:22:43.043Z,3.13
2022-10-20T13:25:40.454Z,2.38
2022-10-20T13:28:18.536Z,2.30
2022-10-20T13:31:13.243Z,3.03
2022-10-20T13:34:03.821Z,2.35
2022-10-20T13:36:40.912Z,2.67
2022-10-20T13:39:19.715Z,2.63
2022-10-20T13:41:57.424Z,2.58
2022-10-20T13:44:42.101Z,2.63
2022-10-20T13:47:40.767Z,2.78
2022-10-20T13:50:21.560Z,2.67
2022-10-20T13:52:51.548Z,2.50
2022-10-20T13:55:27.756Z,2.38
2022-10-20T13:58:04.350Z,2.67
2022-10-20T14:00:33.129Z,2.63
2022-10-20T14:03:17.982Z,2.28
2022-10-20T14:05:45.202Z,2.47
2022-10-20T14:08:15.919Z,2.47
2022-10-20T14:10:56.066Z,2.60
2022-10-20T14:13:31.430Z,2.10
2022-10-20T14:16:00.575Z,2.50
2022-10-20T14:18:35.485Z,2.72
2022-10-20T14:21:05.112Z,2.17
2022-10-20T14:23:35.723Z,2.13
2022-10-20T14:26:04.814Z,2.33
2022-10-20T14:28:33.974Z,1.95
2022-10-20T14:31:01.506Z,2.30
2022-10-20T14:33:29.898Z,2.35
2022-10-20T14:36:02.625Z,2.10
2022-10-20T14:38:37.653Z,1.77
2022-10-20T14:41:07.100Z,2.38
2022-10-20T14:43:42.097Z,2.28
2022-10-20T14:46:12.340Z,1.85
2022-10-20T14:48:43.962Z,2.22
2022-10-20T14:51:32.573Z,2.47
2022-10-20T14:54:20.902Z,2.47
2022-10-20T14:56:49.827Z,2.40
2022-10-20T14:59:19.476Z,2.15
2022-10-20T15:02:21.203Z,1.90
2022-10-20T15:04:51.837Z,2.30
2022-10-20T15:07:24.413Z,2.10
2022-10-20T15:09:53.710Z,1.90
2022-10-20T15:14:54.508Z,2.40
2022-10-20T15:17:38.811Z,2.50
2022-10-20T15:20:32.793Z,2.53
2022-10-20T15:23:05.869Z,2.22
2022-10-20T15:25:43.596Z,2.53
2022-10-20T15:28:25.331Z,2.28
2022-10-20T15:30:54.774Z,2.20
2022-10-20T15:33:22.576Z,2.30
2022-10-20T15:35:50.672Z,2.10
2022-10-20T15:38:17.918Z,2.70
2022-10-20T15:40:45.184Z,1.90
2022-10-20T15:43:14.613Z,2.50
2022-10-20T15:45:45.161Z,2.53
2022-10-20T15:48:12.427Z,2.40
2022-10-20T15:50:39.969Z,2.13
2022-10-20T15:53:07.394Z,2.03
2022-10-20T15:55:37.458Z,2.58
2022-10-20T15:58:04.799Z,2.38
2022-10-20T16:00:32.239Z,2.85
2022-10-20T16:02:59.440Z,2.75
2022-10-20T16:05:27.372Z,2.40
2022-10-20T16:07:55.242Z,2.55
2022-10-20T16:10:25.229Z,2.55
2022-10-20T16:12:52.395Z,2.67
2022-10-20T16:15:19.716Z,3.03
2022-10-20T16:17:50.582Z,3.03
2022-10-20T16:20:18.123Z,3.33
2022-10-20T16:22:45.280Z,3.97
2022-10-20T16:25:12.475Z,3.88
2022-10-20T16:27:40.058Z,3.45
2022-10-20T16:30:08.504Z,3.78
2022-10-20T16:32:36.339Z,3.92
2022-10-20T16:35:05.480Z,3.92
2022-10-20T16:37:33.810Z,4.00
2022-10-20T16:40:07.394Z,4.50
2022-10-20T16:42:34.577Z,4.15
2022-10-20T16:45:01.726Z,4.85
2022-10-20T16:47:28.957Z,4.40
2022-10-20T16:49:56.247Z,4.75
2022-10-20T16:52:23.500Z,4.60
2022-10-20T16:54:50.645Z,4.30
2022-10-20T16:57:17.820Z,4.72
2022-10-20T16:59:49.922Z,4.63
2022-10-20T17:02:18.872Z,4.65
2022-10-20T17:04:49.711Z,4.40
2022-10-20T17:07:18.164Z,4.90
2022-10-20T17:09:45.451Z,5.30
2022-10-20T17:12:12.612Z,5.40
2022-10-20T17:14:40.722Z,5.10
2022-10-20T17:17:07.965Z,5.70
2022-10-20T17:19:35.306Z,5.63
2022-10-20T17:22:02.541Z,5.88
2022-10-20T17:24:29.768Z,5.60
2022-10-20T17:26:56.904Z,5.30
2022-10-20T17:29:26.176Z,6.03
2022-10-20T17:31:53.591Z,6.00
2022-10-20T17:34:20.746Z,6.10
2022-10-20T17:36:47.905Z,6.25
2022-10-20T17:39:16.981Z,6.20
2022-10-20T17:41:44.161Z,6.32
2022-10-20T17:44:11.724Z,6.18
2022-10-20T17:46:39.059Z,7.20
2022-10-20T17:49:06.787Z,6.35
2022-10-20T17:51:35.055Z,6.30
2022-10-20T17:54:02.433Z,6.67
2022-10-20T17:56:31.946Z,6.70
2022-10-20T17:59:00.248Z,7.53
2022-10-20T18:01:30.540Z,6.83
2022-10-20T18:04:00.794Z,7.45
2022-10-20T18:06:33.794Z,6.80
2022-10-20T18:09:06.993Z,6.80
2022-10-20T18:11:35.189Z,7.25
2022-10-20T18:14:03.495Z,7.13
2022-10-20T18:16:32.738Z,7.13
2022-10-20T18:19:00.395Z,7.38
2022-10-20T18:21:28.962Z,6.85
2022-10-20T18:23:57.400Z,7.63
2022-10-20T18:26:24.642Z,7.55
2022-10-20T18:28:52.284Z,8.20
2022-10-20T18:31:22.760Z,8.77
2022-10-20T18:33:54.182Z,8.18
2022-10-20T18:36:21.321Z,7.90
2022-10-20T18:38:48.531Z,8.00
2022-10-20T18:41:21.033Z,7.50
2022-10-20T18:43:57.610Z,8.73
2022-10-20T18:46:29.859Z,8.43
2022-10-20T18:48:58.016Z,8.85
2022-10-20T18:51:25.299Z,8.60
2022-10-20T18:53:55.172Z,8.55
2022-10-20T18:56:24.350Z,9.05
2022-10-20T18:58:53.947Z,8.52
2022-10-20T19:01:23.345Z,9.02
2022-10-20T19:03:53.077Z,8.18
2022-10-20T19:06:22.092Z,8.80
2022-10-20T19:08:54.077Z,9.55
2022-10-20T19:11:23.298Z,9.05
2022-10-20T19:13:50.569Z,8.77
2022-10-20T19:16:20.639Z,8.77
2022-10-20T19:18:50.391Z,9.20
2022-10-20T19:21:18.015Z,9.15
2022-10-20T19:23:48.298Z,8.70
2022-10-20T19:26:18.251Z,9.57
2022-10-20T19:28:58.822Z,9.10
2022-10-20T19:31:27.658Z,8.35
2022-10-20T19:33:58.319Z,9.25
2022-10-20T19:36:26.750Z,9.45
2022-10-20T19:38:54.589Z,7.77
2022-10-20T19:41:22.625Z,9.27
2022-10-20T19:43:50.201Z,9.05
2022-10-20T19:46:19.705Z,8.98
2022-10-20T19:48:47.724Z,9.18
2022-10-20T19:51:16.895Z,8.70
2022-10-20T19:53:44.485Z,9.20
2022-10-20T19:56:11.762Z,9.23
2022-10-20T19:58:42.628Z,9.50
2022-10-20T20:01:12.884Z,9.05
2022-10-20T20:03:40.077Z,9.68
2022-10-20T20:06:16.200Z,9.55
2022-10-20T20:08:48.616Z,8.90
2022-10-20T20:11:24.015Z,8.75
2022-10-20T20:14:02.372Z,8.38
2022-10-20T20:16:30.005Z,8.90
2022-10-20T20:18:57.579Z,8.80
2022-10-20T20:21:25.043Z,9.38
2022-10-20T20:24:01.174Z,8.88
2022-10-20T20:26:30.506Z,8.85
2022-10-20T20:28:58.557Z,9.85
2022-10-20T20:31:27.675Z,9.32
2022-10-20T20:33:56.547Z,8.57
2022-10-20T20:36:27.003Z,8.50
2022-10-20T20:38:57.449Z,9.95
2022-10-20T20:41:26.990Z,8.73
2022-10-20T20:43:54.738Z,9.38
2022-10-20T20:46:23.869Z,9.88
2022-10-20T20:48:51.336Z,8.73
2022-10-20T20:51:18.823Z,9.10
2022-10-20T20:53:46.052Z,8.82
2022-10-20T20:56:21.944Z,9.00
2022-10-20T20:58:55.666Z,9.35
2022-10-20T21:04:00.053Z,8.40
2022-10-20T21:06:33.919Z,9.30
2022-10-20T21:09:11.685Z,9.18
2022-10-20T21:11:38.945Z,8.45
2022-10-20T21:14:06.144Z,8.63
2022-10-20T21:16:35.386Z,8.60
2022-10-20T21:19:05.436Z,8.45
2022-10-20T21:21:34.555Z,7.95
2022-10-20T21:24:02.613Z,8.55
2022-10-20T21:26:30.273Z,7.85
2022-10-20T21:28:58.196Z,8.30
2022-10-20T21:31:27.137Z,8.70
2022-10-20T21:33:56.442Z,8.40
2022-10-20T21:36:24.317Z,8.02
2022-10-20T21:38:52.160Z,8.25
2022-10-20T21:41:21.836Z,7.72
2022-10-20T21:43:51.450Z,8.15
2022-10-20T21:46:30.443Z,8.35
2022-10-20T21:49:07.056Z,8.10
2022-10-20T21:51:37.117Z,7.43
2022-10-20T21:54:07.232Z,7.97
2022-10-20T21:56:36.772Z,8.02
2022-10-20T21:59:04.680Z,7.53
2022-10-20T22:01:32.261Z,8.75
2022-10-20T22:03:59.545Z,9.02
2022-10-20T22:06:27.447Z,9.32
2022-10-20T22:08:57.280Z,9.38
2022-10-20T22:11:30.042Z,9.50
2022-10-20T22:13:57.362Z,9.95
2022-10-20T22:16:27.209Z,9.40
2022-10-20T22:18:59.236Z,10.18
2022-10-20T22:21:27.098Z,9.90
2022-10-20T22:23:55.627Z,9.82
2022-10-20T22:26:26.089Z,10.07
2022-10-20T22:28:53.549Z,10.68
2022-10-20T22:31:20.789Z,11.05
2022-10-20T22:33:48.004Z,10.38
2022-10-20T22:36:15.155Z,12.20
2022-10-20T22:38:42.352Z,11.77
2022-10-20T22:41:11.644Z,11.55
2022-10-20T22:46:09.118Z,11.05
2022-10-20T22:48:36.721Z,12.75
2022-10-20T22:51:08.330Z,11.50
2022-10-20T22:53:36.303Z,12.05
2022-10-20T22:56:09.015Z,11.18
2022-10-20T22:58:36.756Z,11.93
2022-10-20T23:01:17.735Z,12.20
2022-10-20T23:03:45.485Z,11.98
2022-10-20T23:06:18.542Z,11.45
2022-10-20T23:08:47.968Z,11.88
2022-10-20T23:11:15.671Z,12.48
2022-10-20T23:13:43.080Z,12.05
2022-10-20T23:16:10.941Z,12.50
2022-10-20T23:18:38.546Z,12.07
2022-10-20T23:21:06.327Z,11.80
2022-10-20T23:23:36.356Z,11.60
2022-10-20T23:26:04.773Z,12.25
2022-10-20T23:28:37.247Z,12.32
2022-10-20T23:31:13.374Z,12.02
2022-10-20T23:33:42.075Z,11.93
2022-10-20T23:36:09.993Z,12.15
2022-10-20T23:38:37.185Z,11.73
2022-10-20T23:41:04.973Z,12.30
2022-10-20T23:43:32.623Z,11.65
2022-10-20T23:46:00.116Z,12.07
2022-10-20T23:48:27.345Z,12.55
2022-10-20T23:50:54.513Z,12.82
2022-10-20T23:53:21.688Z,11.27
2022-10-20T23:55:48.868Z,11.32
2022-10-20T23:58:16.121Z,12.07
